createdAt,value
2024-04-12T00:01:05.171Z,5.00
2024-04-12T00:06:07.212Z,4.40
2024-04-12T00:08:34.235Z,5.90
2024-04-12T00:11:01.488Z,5.45
2024-04-12T00:13:32.795Z,4.15
2024-04-12T00:16:04.684Z,6.65
2024-04-12T00:18:31.598Z,5.65
2024-04-12T00:21:02.896Z,5.45
2024-04-12T00:23:31.847Z,4.65
2024-04-12T00:26:01.700Z,5.05
2024-04-12T00:28:31.188Z,6.05
2024-04-12T00:31:01.116Z,4.75
2024-04-12T00:33:35.858Z,5.38
2024-04-12T00:36:12.713Z,5.70
2024-04-12T00:38:43.035Z,6.47
2024-04-12T00:41:15.632Z,5.80
2024-04-12T00:43:50.822Z,4.97
2024-04-12T00:46:20.633Z,4.75
2024-04-12T00:48:53.454Z,5.53
2024-04-12T00:51:23.437Z,5.32
2024-04-12T00:53:58.305Z,5.70
2024-04-12T00:56:29.243Z,6.00
2024-04-12T00:58:57.117Z,6.18
2024-04-12T01:01:26.149Z,6.45
2024-04-12T01:03:56.503Z,6.32
2024-04-12T01:06:25.910Z,6.68
2024-04-12T01:08:53.550Z,6.35
2024-04-12T01:11:21.438Z,5.47
2024-04-12T01:13:49.819Z,5.93
2024-04-12T01:16:17.062Z,7.22
2024-04-12T01:18:44.090Z,6.15
2024-04-12T01:21:13.777Z,6.45
2024-04-12T01:23:44.438Z,7.30
2024-04-12T01:26:15.300Z,6.45
2024-04-12T01:28:45.775Z,8.38
2024-04-12T01:31:16.431Z,7.00
2024-04-12T01:33:44.974Z,6.88
2024-04-12T01:36:12.585Z,7.63
2024-04-12T01:38:39.854Z,6.65
2024-04-12T01:41:06.940Z,8.38
2024-04-12T01:43:37.554Z,7.90
2024-04-12T01:46:05.888Z,7.22
2024-04-12T01:48:35.866Z,6.22
2024-04-12T01:51:04.108Z,7.43
2024-04-12T01:53:38.383Z,8.57
2024-04-12T01:56:06.272Z,8.13
2024-04-12T01:58:35.495Z,7.88
2024-04-12T02:01:06.143Z,7.90
2024-04-12T02:03:33.179Z,7.15
2024-04-12T02:06:06.938Z,8.93
2024-04-12T02:08:34.580Z,8.20
2024-04-12T02:11:07.347Z,6.50
2024-04-12T02:13:38.897Z,7.85
2024-04-12T02:16:12.392Z,7.10
2024-04-12T02:18:42.636Z,9.60
2024-04-12T02:21:12.085Z,10.02
2024-04-12T02:23:39.770Z,7.22
2024-04-12T02:26:06.674Z,8.20
2024-04-12T02:28:37.639Z,8.15
2024-04-12T02:31:09.783Z,7.13
2024-04-12T02:33:39.411Z,7.20
2024-04-12T02:36:12.970Z,7.25
2024-04-12T02:38:41.654Z,6.35
2024-04-12T02:41:15.340Z,6.88
2024-04-12T02:43:42.856Z,6.03
2024-04-12T02:46:12.479Z,6.75
2024-04-12T02:48:46.155Z,6.07
2024-04-12T02:51:18.959Z,7.30
2024-04-12T02:53:46.597Z,6.07
2024-04-12T02:56:14.819Z,6.93
2024-04-12T02:58:43.147Z,6.75
2024-04-12T03:01:14.244Z,7.72
2024-04-12T03:03:48.457Z,6.30
2024-04-12T03:06:18.723Z,6.40
2024-04-12T03:08:49.551Z,5.82
2024-04-12T03:11:24.298Z,6.72
2024-04-12T03:13:52.529Z,7.43
2024-04-12T03:16:21.067Z,6.35
2024-04-12T03:18:53.001Z,5.95
2024-04-12T03:21:23.371Z,6.78
2024-04-12T03:23:51.090Z,6.72
2024-04-12T03:26:23.273Z,6.78
2024-04-12T03:28:55.115Z,6.00
2024-04-12T03:31:22.234Z,6.20
2024-04-12T03:33:51.671Z,4.85
2024-04-12T03:36:38.876Z,6.10
2024-04-12T03:39:32.485Z,5.20
2024-04-12T03:42:10.402Z,4.88
2024-04-12T03:44:38.833Z,4.90
2024-04-12T03:47:13.266Z,5.00
2024-04-12T03:49:44.621Z,5.10
2024-04-12T03:52:14.975Z,4.63
2024-04-12T03:54:43.753Z,4.55
2024-04-12T03:57:11.517Z,5.57
2024-04-12T03:59:45.622Z,4.47
2024-04-12T04:02:15.502Z,6.35
2024-04-12T04:04:46.877Z,4.65
2024-04-12T04:07:17.192Z,5.15
2024-04-12T04:09:45.052Z,4.88
2024-04-12T04:12:16.406Z,4.80
2024-04-12T04:14:52.453Z,5.45
2024-04-12T04:17:20.591Z,5.50
2024-04-12T04:19:53.025Z,5.60
2024-04-12T04:22:32.341Z,4.32
2024-04-12T04:24:59.157Z,4.93
2024-04-12T04:27:26.188Z,4.72
2024-04-12T04:29:56.983Z,4.75
2024-04-12T04:32:24.598Z,5.30
2024-04-12T04:35:07.754Z,4.28
2024-04-12T04:37:41.830Z,4.50
2024-04-12T04:40:18.493Z,5.20
2024-04-12T04:42:51.596Z,5.45
2024-04-12T04:45:20.490Z,4.95
2024-04-12T04:47:48.398Z,6.18
2024-04-12T04:50:20.848Z,5.80
2024-04-12T04:52:48.406Z,6.32
2024-04-12T04:55:15.319Z,5.40
2024-04-12T04:57:45.264Z,5.43
2024-04-12T05:00:20.029Z,4.43
2024-04-12T05:02:51.584Z,5.80
2024-04-12T05:05:29.857Z,3.95
2024-04-12T05:07:58.550Z,4.43
2024-04-12T05:10:26.720Z,5.13
2024-04-12T05:12:55.522Z,4.60
2024-04-12T05:15:51.028Z,4.95
2024-04-12T05:18:18.216Z,4.95
2024-04-12T05:20:49.447Z,5.57
2024-04-12T05:25:47.882Z,4.70
2024-04-12T05:28:14.844Z,4.90
2024-04-12T05:30:45.485Z,4.25
2024-04-12T05:33:14.322Z,4.80
2024-04-12T05:35:42.110Z,5.20
2024-04-12T05:38:13.530Z,5.40
2024-04-12T05:40:53.019Z,5.05
2024-04-12T05:43:22.788Z,5.10
2024-04-12T05:45:51.554Z,4.18
2024-04-12T05:48:19.013Z,4.07
2024-04-12T05:50:49.955Z,4.18
2024-04-12T05:53:20.874Z,4.70
2024-04-12T05:55:52.738Z,4.60
2024-04-12T05:58:25.032Z,4.80
2024-04-12T06:00:52.077Z,5.72
2024-04-12T06:03:19.081Z,5.32
2024-04-12T06:05:57.315Z,3.95
2024-04-12T06:08:27.272Z,5.70
2024-04-12T06:10:56.809Z,4.55
2024-04-12T06:13:27.293Z,4.53
2024-04-12T06:15:55.752Z,6.95
2024-04-12T06:18:22.863Z,4.80
2024-04-12T06:20:50.269Z,4.32
2024-04-12T06:23:20.783Z,5.05
2024-04-12T06:25:51.157Z,4.90
2024-04-12T06:28:20.910Z,6.22
2024-04-12T06:30:50.128Z,5.65
2024-04-12T06:33:21.564Z,7.43
2024-04-12T06:38:27.030Z,3.88
2024-04-12T06:40:59.257Z,6.03
2024-04-12T06:43:27.557Z,5.60
2024-04-12T06:45:57.973Z,4.75
2024-04-12T06:48:27.705Z,7.18
2024-04-12T06:50:55.903Z,5.85
2024-04-12T06:53:23.280Z,5.18
2024-04-12T06:55:50.691Z,5.65
2024-04-12T06:58:22.917Z,6.25
2024-04-12T07:00:55.213Z,7.68
2024-04-12T07:03:23.896Z,5.60
2024-04-12T07:05:54.692Z,6.60
2024-04-12T07:08:28.257Z,5.20
2024-04-12T07:10:55.817Z,6.82
2024-04-12T07:13:28.831Z,6.35
2024-04-12T07:15:57.032Z,6.20
2024-04-12T07:18:24.733Z,7.25
2024-04-12T07:20:51.712Z,6.22
2024-04-12T07:23:18.589Z,6.53
2024-04-12T07:25:48.990Z,5.57
2024-04-12T07:28:15.942Z,6.20
2024-04-12T07:30:45.993Z,6.38
2024-04-12T07:33:13.794Z,6.35
2024-04-12T07:35:41.001Z,6.10
2024-04-12T07:38:09.586Z,6.15
2024-04-12T07:40:41.262Z,6.00
2024-04-12T07:43:12.282Z,5.65
2024-04-12T07:45:40.248Z,6.88
2024-04-12T07:48:37.112Z,5.43
2024-04-12T07:51:06.412Z,6.05
2024-04-12T07:53:37.618Z,5.63
2024-04-12T07:56:16.285Z,5.50
2024-04-12T07:58:44.712Z,5.95
2024-04-12T08:01:20.521Z,7.10
2024-04-12T08:03:58.317Z,5.10
2024-04-12T08:06:39.058Z,5.45
2024-04-12T08:09:07.400Z,6.30
2024-04-12T08:11:43.248Z,5.88
2024-04-12T08:14:21.720Z,5.50
2024-04-12T08:16:53.590Z,6.32
2024-04-12T08:19:23.846Z,9.77
2024-04-12T08:21:51.395Z,6.90
2024-04-12T08:24:23.887Z,5.82
2024-04-12T08:26:53.197Z,7.22
2024-04-12T08:29:21.639Z,6.85
2024-04-12T08:31:49.146Z,5.65
2024-04-12T08:34:17.086Z,6.18
2024-04-12T08:36:51.171Z,6.88
2024-04-12T08:39:27.667Z,8.63
2024-04-12T08:41:59.856Z,8.20
2024-04-12T08:44:28.138Z,6.15
2024-04-12T08:46:55.339Z,6.50
2024-04-12T08:49:25.744Z,7.30
2024-04-12T08:51:59.697Z,6.88
2024-04-12T08:54:27.868Z,7.07
2024-04-12T08:56:56.181Z,6.03
2024-04-12T08:59:27.846Z,5.85
2024-04-12T09:01:57.671Z,7.07
2024-04-12T09:04:26.498Z,7.57
2024-04-12T09:06:59.528Z,5.55
2024-04-12T09:09:26.398Z,8.00
2024-04-12T09:11:56.250Z,7.68
2024-04-12T09:14:27.785Z,7.68
2024-04-12T09:17:01.981Z,7.35
2024-04-12T09:19:30.156Z,5.18
2024-04-12T09:22:03.775Z,5.25
2024-04-12T09:24:33.805Z,5.75
2024-04-12T09:27:12.053Z,4.28
2024-04-12T09:29:44.936Z,6.97
2024-04-12T09:32:30.751Z,5.65
2024-04-12T09:34:59.426Z,6.75
2024-04-12T09:37:44.378Z,4.40
2024-04-12T09:40:13.233Z,6.20
2024-04-12T09:43:07.127Z,4.50
2024-04-12T09:45:47.907Z,4.60
2024-04-12T09:48:37.310Z,5.72
2024-04-12T09:51:23.858Z,5.75
2024-04-12T09:54:12.189Z,6.53
2024-04-12T09:56:59.081Z,5.63
2024-04-12T09:59:47.961Z,7.53
2024-04-12T10:02:36.869Z,5.07
2024-04-12T10:05:27.448Z,7.10
2024-04-12T10:08:17.519Z,6.95
2024-04-12T10:11:07.602Z,5.68
2024-04-12T10:14:04.239Z,5.82
2024-04-12T10:16:58.574Z,4.50
2024-04-12T10:19:44.207Z,5.55
2024-04-12T10:22:31.214Z,5.50
2024-04-12T10:25:16.863Z,4.80
2024-04-12T10:28:10.676Z,4.68
2024-04-12T10:31:03.077Z,6.68
2024-04-12T10:33:48.774Z,4.35
2024-04-12T10:36:44.902Z,4.63
2024-04-12T10:39:14.550Z,5.05
2024-04-12T10:41:42.765Z,5.90
2024-04-12T10:44:12.303Z,6.95
2024-04-12T10:46:39.238Z,4.93
2024-04-12T10:49:06.957Z,5.03
2024-04-12T10:51:37.195Z,7.00
2024-04-12T10:54:05.973Z,6.50
2024-04-12T10:56:32.928Z,5.10
2024-04-12T10:59:00.900Z,4.85
2024-04-12T11:01:31.432Z,7.72
2024-04-12T11:03:59.631Z,5.60
2024-04-12T11:06:38.684Z,5.57
2024-04-12T11:09:10.404Z,4.53
2024-04-12T11:11:45.153Z,5.68
2024-04-12T11:14:29.245Z,5.60
2024-04-12T11:17:17.713Z,5.18
2024-04-12T11:20:03.834Z,5.32
2024-04-12T11:22:49.558Z,4.22
2024-04-12T11:25:39.521Z,4.72
2024-04-12T11:28:25.320Z,4.22
2024-04-12T11:31:14.089Z,4.80
2024-04-12T11:33:48.607Z,4.80
2024-04-12T11:36:22.165Z,5.10
2024-04-12T11:41:17.385Z,5.80
2024-04-12T11:43:46.420Z,7.70
2024-04-12T11:46:15.882Z,3.15
2024-04-12T11:48:45.450Z,3.38
2024-04-12T11:51:16.705Z,4.03
2024-04-12T11:53:43.955Z,4.80
2024-04-12T11:56:13.719Z,3.63
2024-04-12T11:58:44.747Z,4.30
2024-04-12T12:01:11.633Z,3.88
2024-04-12T12:03:39.250Z,4.80
2024-04-12T12:06:08.883Z,3.53
2024-04-12T12:08:42.883Z,4.05
2024-04-12T12:11:10.188Z,3.88
2024-04-12T12:13:37.201Z,4.13
2024-04-12T12:16:07.425Z,4.53
2024-04-12T12:18:37.079Z,3.72
2024-04-12T12:21:04.623Z,4.55
2024-04-12T12:23:35.516Z,5.68
2024-04-12T12:26:04.008Z,6.40
2024-04-12T12:28:30.955Z,3.63
2024-04-12T12:30:58.891Z,4.43
2024-04-12T12:33:26.214Z,4.60
2024-04-12T12:35:55.893Z,4.38
2024-04-12T12:38:22.845Z,3.97
2024-04-12T12:40:52.268Z,3.33
2024-04-12T12:43:23.454Z,3.50
2024-04-12T12:45:50.930Z,3.67
2024-04-12T12:48:21.650Z,3.45
2024-04-12T12:50:48.744Z,3.03
2024-04-12T12:53:16.656Z,2.60
2024-04-12T12:55:43.454Z,4.10
2024-04-12T12:58:13.382Z,4.63
2024-04-12T13:00:45.983Z,3.42
2024-04-12T13:03:14.112Z,2.85
2024-04-12T13:05:41.829Z,3.42
2024-04-12T13:08:08.816Z,4.22
2024-04-12T13:10:35.798Z,5.93
2024-04-12T13:13:05.890Z,4.97
2024-04-12T13:15:35.610Z,3.17
2024-04-12T13:18:03.270Z,3.70
2024-04-12T13:20:37.461Z,3.08
2024-04-12T13:23:04.790Z,3.70
2024-04-12T13:25:31.610Z,4.00
2024-04-12T13:28:02.142Z,4.45
2024-04-12T13:30:32.330Z,3.38
2024-04-12T13:33:01.944Z,3.30
2024-04-12T13:35:29.735Z,3.03
2024-04-12T13:37:56.770Z,1.90
2024-04-12T13:40:23.604Z,3.47
2024-04-12T13:42:50.875Z,2.35
2024-04-12T13:45:36.531Z,4.85
2024-04-12T13:48:26.187Z,3.50
2024-04-12T13:50:59.966Z,2.75
2024-04-12T13:53:33.802Z,2.60
2024-04-12T13:56:18.390Z,2.58
2024-04-12T13:58:49.982Z,2.90
2024-04-12T14:01:18.170Z,3.60
2024-04-12T14:03:47.705Z,4.05
2024-04-12T14:06:14.620Z,3.22
2024-04-12T14:08:41.580Z,3.53
2024-04-12T14:11:08.450Z,3.67
2024-04-12T14:13:35.367Z,3.50
2024-04-12T14:16:02.230Z,4.07
2024-04-12T14:18:30.988Z,4.85
2024-04-12T14:21:00.876Z,4.50
2024-04-12T14:23:30.769Z,3.72
2024-04-12T14:26:00.501Z,4.95
2024-04-12T14:28:27.382Z,4.53
2024-04-12T14:30:54.273Z,6.85
2024-04-12T14:33:24.531Z,3.28
2024-04-12T14:35:52.110Z,3.88
2024-04-12T14:38:21.687Z,4.03
2024-04-12T14:40:53.370Z,5.35
2024-04-12T14:43:20.517Z,5.32
2024-04-12T14:45:47.746Z,4.85
2024-04-12T14:48:14.847Z,3.05
2024-04-12T14:50:41.990Z,4.30
2024-04-12T14:53:08.876Z,5.00
2024-04-12T14:55:38.361Z,4.55
2024-04-12T14:58:05.236Z,3.03
2024-04-12T15:00:33.351Z,3.78
2024-04-12T15:03:00.669Z,4.57
2024-04-12T15:05:46.250Z,2.75
2024-04-12T15:08:35.283Z,3.63
2024-04-12T15:11:25.017Z,3.30
2024-04-12T15:14:10.780Z,2.65
2024-04-12T15:16:56.330Z,2.63
2024-04-12T15:19:41.911Z,4.10
2024-04-12T15:22:27.425Z,2.42
2024-04-12T15:25:13.104Z,2.10
2024-04-12T15:28:01.255Z,3.53
2024-04-12T15:30:46.836Z,2.03
2024-04-12T15:33:32.740Z,3.85
2024-04-12T15:36:18.152Z,1.67
2024-04-12T15:39:03.579Z,1.42
2024-04-12T15:41:49.229Z,1.73
2024-04-12T15:44:37.222Z,1.83
2024-04-12T15:47:04.561Z,2.67
2024-04-12T15:49:43.877Z,2.55
2024-04-12T15:52:14.220Z,1.73
2024-04-12T15:54:47.448Z,2.35
2024-04-12T15:57:33.433Z,1.42
2024-04-12T16:00:23.009Z,1.63
2024-04-12T16:03:11.029Z,1.90
2024-04-12T16:05:57.901Z,1.42
2024-04-12T16:08:44.162Z,1.50
2024-04-12T16:11:12.237Z,1.30
2024-04-12T16:13:39.095Z,4.45
2024-04-12T16:16:08.657Z,2.30
2024-04-12T16:18:35.658Z,1.77
2024-04-12T16:21:02.611Z,1.17
2024-04-12T16:23:30.836Z,2.53
2024-04-12T16:26:03.467Z,2.25
2024-04-12T16:28:33.078Z,1.65
2024-04-12T16:31:01.613Z,1.27
2024-04-12T16:33:33.113Z,1.45
2024-04-12T16:36:00.237Z,2.45
2024-04-12T16:38:27.319Z,1.77
2024-04-12T16:40:54.254Z,1.63
2024-04-12T16:43:21.062Z,2.60
2024-04-12T16:45:48.226Z,2.60
2024-04-12T16:48:15.496Z,1.65
2024-04-12T16:50:45.183Z,2.03
2024-04-12T16:53:12.103Z,0.98
2024-04-12T16:55:39.935Z,1.83
2024-04-12T16:58:10.492Z,1.70
2024-04-12T17:00:37.896Z,1.50
2024-04-12T17:03:05.751Z,1.33
2024-04-12T17:05:33.099Z,1.55
2024-04-12T17:08:05.396Z,1.83
2024-04-12T17:10:33.099Z,2.60
2024-04-12T17:12:59.966Z,2.15
2024-04-12T17:15:26.988Z,1.30
2024-04-12T17:17:53.937Z,2.40
2024-04-12T17:20:20.853Z,3.92
2024-04-12T17:22:47.750Z,1.95
2024-04-12T17:25:19.959Z,1.75
2024-04-12T17:27:49.631Z,2.80
2024-04-12T17:30:17.018Z,2.72
2024-04-12T17:32:44.900Z,2.25
2024-04-12T17:35:12.069Z,1.95
2024-04-12T17:37:39.216Z,1.90
2024-04-12T17:40:07.622Z,3.15
2024-04-12T17:42:38.908Z,1.50
2024-04-12T17:47:33.321Z,2.25
2024-04-12T17:50:00.286Z,2.53
2024-04-12T17:52:29.270Z,2.08
2024-04-12T17:54:56.666Z,1.88
2024-04-12T17:57:24.226Z,1.42
2024-04-12T17:59:54.735Z,1.73
2024-04-12T18:02:23.538Z,2.15
2024-04-12T18:04:50.691Z,2.30
2024-04-12T18:07:17.557Z,1.75
2024-04-12T18:09:45.979Z,2.85
2024-04-12T18:12:15.737Z,2.35
2024-04-12T18:14:43.328Z,1.88
2024-04-12T18:17:12.899Z,2.42
2024-04-12T18:19:39.964Z,1.52
2024-04-12T18:22:07.022Z,2.65
2024-04-12T18:24:33.918Z,1.50
2024-04-12T18:27:00.786Z,2.38
2024-04-12T18:29:27.651Z,2.38
2024-04-12T18:31:59.059Z,1.45
2024-04-12T18:34:30.416Z,1.65
2024-04-12T18:40:01.316Z,2.22
2024-04-12T18:42:47.251Z,2.03
2024-04-12T18:45:16.596Z,2.10
2024-04-12T18:47:48.622Z,3.63
2024-04-12T18:50:22.349Z,1.77
2024-04-12T18:52:50.351Z,1.70
2024-04-12T18:55:18.100Z,2.80
2024-04-12T18:57:44.942Z,1.52
2024-04-12T19:00:13.509Z,1.83
2024-04-12T19:02:40.400Z,2.28
2024-04-12T19:05:07.815Z,2.28
2024-04-12T19:07:37.257Z,2.63
2024-04-12T19:10:05.899Z,1.40
2024-04-12T19:12:33.909Z,2.08
2024-04-12T19:15:00.918Z,1.30
2024-04-12T19:17:27.754Z,1.90
2024-04-12T19:19:54.608Z,2.15
2024-04-12T19:22:21.621Z,2.30
2024-04-12T19:24:51.101Z,2.22
2024-04-12T19:27:22.159Z,1.50
2024-04-12T19:29:49.041Z,1.92
2024-04-12T19:32:17.414Z,2.33
2024-04-12T19:34:44.494Z,3.00
2024-04-12T19:37:11.328Z,1.95
2024-04-12T19:39:38.269Z,2.35
2024-04-12T19:42:08.809Z,1.70
2024-04-12T19:44:37.937Z,2.67
2024-04-12T19:47:06.540Z,2.90
2024-04-12T19:49:36.544Z,1.40
2024-04-12T19:52:04.511Z,2.17
2024-04-12T19:54:31.802Z,1.92
2024-04-12T19:56:59.021Z,1.17
2024-04-12T19:59:28.471Z,3.03
2024-04-12T20:01:55.397Z,3.22
2024-04-12T20:04:22.433Z,2.80
2024-04-12T20:06:49.540Z,1.88
2024-04-12T20:09:16.609Z,1.55
2024-04-12T20:11:43.453Z,1.90
2024-04-12T20:14:10.281Z,2.72
2024-04-12T20:16:40.452Z,2.45
2024-04-12T20:19:07.905Z,2.42
2024-04-12T20:21:36.170Z,1.80
2024-04-12T20:24:03.206Z,2.17
2024-04-12T20:26:30.183Z,2.55
2024-04-12T20:28:58.161Z,1.95
2024-04-12T20:31:38.292Z,2.28
2024-04-12T20:34:08.105Z,2.85
2024-04-12T20:36:44.265Z,2.03
2024-04-12T20:39:19.025Z,2.10
2024-04-12T20:41:50.083Z,2.42
2024-04-12T20:44:21.217Z,1.80
2024-04-12T20:46:49.560Z,2.70
2024-04-12T20:49:19.761Z,2.40
2024-04-12T20:51:47.498Z,2.95
2024-04-12T20:54:15.670Z,3.00
2024-04-12T20:56:43.187Z,2.67
2024-04-12T20:59:10.174Z,2.85
2024-04-12T21:01:42.337Z,2.83
2024-04-12T21:04:10.173Z,3.47
2024-04-12T21:06:39.737Z,3.00
2024-04-12T21:09:06.634Z,3.05
2024-04-12T21:11:33.727Z,2.97
2024-04-12T21:14:00.761Z,3.40
2024-04-12T21:16:29.216Z,3.50
2024-04-12T21:18:56.145Z,2.13
2024-04-12T21:21:23.056Z,2.15
2024-04-12T21:23:52.816Z,1.98
2024-04-12T21:26:23.475Z,3.97
2024-04-12T21:28:50.374Z,2.00
2024-04-12T21:31:17.202Z,2.00
2024-04-12T21:33:44.249Z,2.33
2024-04-12T21:36:11.798Z,3.05
2024-04-12T21:38:40.537Z,1.88
2024-04-12T21:41:11.817Z,2.20
2024-04-12T21:43:39.629Z,1.95
2024-04-12T21:46:08.820Z,2.55
2024-04-12T21:48:38.747Z,3.15
2024-04-12T21:51:06.777Z,2.10
2024-04-12T21:53:34.523Z,2.35
2024-04-12T21:56:03.355Z,1.63
2024-04-12T21:58:33.590Z,3.72
2024-04-12T22:01:01.732Z,2.22
2024-04-12T22:03:29.492Z,1.92
2024-04-12T22:05:57.547Z,2.10
2024-04-12T22:08:24.645Z,2.58
2024-04-12T22:10:53.092Z,2.38
2024-04-12T22:13:21.478Z,2.70
2024-04-12T22:15:56.359Z,2.15
2024-04-12T22:18:28.115Z,2.58
2024-04-12T22:21:02.793Z,2.15
2024-04-12T22:23:29.803Z,2.85
2024-04-12T22:25:57.240Z,2.47
2024-04-12T22:28:24.207Z,1.83
2024-04-12T22:30:51.119Z,3.13
2024-04-12T22:33:20.783Z,3.30
2024-04-12T22:35:48.235Z,2.92
2024-04-12T22:38:15.239Z,3.28
2024-04-12T22:40:42.114Z,3.13
2024-04-12T22:43:09.540Z,4.13
2024-04-12T22:45:36.368Z,2.72
2024-04-12T22:48:04.088Z,2.67
2024-04-12T22:50:35.643Z,2.85
2024-04-12T22:53:02.594Z,3.30
2024-04-12T22:55:29.421Z,3.33
2024-04-12T22:57:56.243Z,2.55
2024-04-12T23:00:24.051Z,3.42
2024-04-12T23:02:51.331Z,3.35
2024-04-12T23:05:18.285Z,2.08
2024-04-12T23:07:47.798Z,2.65
2024-04-12T23:10:14.622Z,2.97
2024-04-12T23:12:43.361Z,3.53
2024-04-12T23:15:10.349Z,2.30
2024-04-12T23:17:39.678Z,2.30
2024-04-12T23:20:09.084Z,2.10
2024-04-12T23:22:35.992Z,1.92
2024-04-12T23:25:05.860Z,2.83
2024-04-12T23:27:32.844Z,2.88
2024-04-12T23:29:59.753Z,2.42
2024-04-12T23:32:26.815Z,3.05
2024-04-12T23:34:56.263Z,2.92
2024-04-12T23:37:23.185Z,2.35
2024-04-12T23:39:50.013Z,3.17
2024-04-12T23:42:20.308Z,2.45
2024-04-12T23:44:47.129Z,3.38
2024-04-12T23:47:14.134Z,3.08
2024-04-12T23:49:41.110Z,2.53
2024-04-12T23:52:07.961Z,2.40
2024-04-12T23:54:35.023Z,1.85
2024-04-12T23:57:01.966Z,3.55
2024-04-12T23:59:31.455Z,2.92
